Time;durP1;ratioP1;P1;durP2;ratioP2;P2;SDS_P1;SDS_P2;PMS_P1;PMS_P2;Temp;Humidity;BMP_temperature;BMP_pressure;BME280_temperature;BME280_humidity;BME280_pressure;Samples;Min_cycle;Max_cycle;Signal;HPM_P1;HPM_P2
2022/07/05 00:01:38;;;;;;;2.22;1.63;;;;;;;21.56;46.04;94722.50;4992392;28;20206;-75
2022/07/05 00:04:05;;;;;;;1.60;1.50;;;;;;;21.51;45.73;94726.44;4992965;28;20363;-76
2022/07/05 00:06:32;;;;;;;7.18;6.72;;;;;;;21.44;45.96;94714.63;4992817;28;20668;-76
2022/07/05 00:08:59;;;;;;;6.90;6.50;;;;;;;21.44;45.81;94720.16;4992517;28;20205;-75
2022/07/05 00:11:27;;;;;;;7.13;6.72;;;;;;;21.54;45.45;94716.59;4993055;28;20207;-75
2022/07/05 00:13:54;;;;;;;3.22;1.52;;;;;;;21.47;46.21;94730.34;4992720;28;20206;-75
2022/07/05 00:16:21;;;;;;;1.55;1.25;;;;;;;21.36;46.84;94718.56;4992676;28;20206;-75
2022/07/05 00:18:47;;;;;;;2.70;1.70;;;;;;;21.30;46.76;94714.63;4992692;28;20269;-75
2022/07/05 00:21:14;;;;;;;6.57;6.18;;;;;;;21.15;47.38;94725.63;4992653;28;20206;-75
2022/07/05 00:23:41;;;;;;;4.00;3.70;;;;;;;21.13;47.55;94719.72;4992317;28;20268;-75
2022/07/05 00:26:08;;;;;;;2.25;1.52;;;;;;;21.03;47.86;94712.22;4992395;28;20205;-75
2022/07/05 00:28:36;;;;;;;1.65;1.52;;;;;;;21.09;48.45;94707.88;4992012;28;20720;-75
2022/07/05 00:31:03;;;;;;;1.52;1.42;;;;;;;21.08;48.33;94714.56;4992345;28;20814;-75
2022/07/05 00:33:29;;;;;;;1.92;1.42;;;;;;;20.96;48.99;94712.22;4992110;28;20230;-76
2022/07/05 00:35:56;;;;;;;1.55;1.33;;;;;;;20.86;49.93;94715.75;4992212;28;20695;-75
2022/07/05 00:38:23;;;;;;;1.83;1.48;;;;;;;20.82;50.13;94723.19;4992474;28;20241;-75
2022/07/05 00:40:50;;;;;;;5.45;2.10;;;;;;;20.76;50.60;94717.31;4992038;28;20205;-76
2022/07/05 00:43:17;;;;;;;2.13;1.92;;;;;;;20.81;49.81;94713.34;4992231;28;20202;-76
2022/07/05 00:45:45;;;;;;;7.45;6.90;;;;;;;20.74;50.20;94710.59;4991769;28;20209;-75
2022/07/05 00:48:12;;;;;;;2.38;2.17;;;;;;;20.56;49.77;94716.84;4992216;28;20727;-75
2022/07/05 00:50:39;;;;;;;2.65;1.60;;;;;;;20.60;49.64;94713.31;4992464;28;20248;-76
2022/07/05 00:53:06;;;;;;;2.67;1.90;;;;;;;20.48;51.79;94715.28;4992282;28;20246;-74
2022/07/05 00:55:34;;;;;;;1.33;1.23;;;;;;;20.44;49.97;94708.94;4992049;28;20198;-76
2022/07/05 00:58:01;;;;;;;1.38;1.27;;;;;;;20.38;51.09;94707.75;4992164;28;20620;-75
2022/07/05 01:00:28;;;;;;;5.40;4.10;;;;;;;20.34;51.15;94704.19;4991935;28;20202;-75
2022/07/05 01:02:56;;;;;;;7.93;7.47;;;;;;;20.38;50.50;94699.47;4992078;28;20759;-74
2022/07/05 01:05:23;;;;;;;5.10;4.80;;;;;;;20.15;51.13;94708.03;4991160;28;20823;-76
2022/07/05 01:07:50;;;;;;;2.00;1.50;;;;;;;20.12;52.27;94708.78;4991138;28;20518;-74
2022/07/05 01:10:18;;;;;;;2.15;1.58;;;;;;;20.07;53.73;94716.66;4990870;28;20206;-74
2022/07/05 01:12:45;;;;;;;2.75;1.88;;;;;;;20.05;55.20;94716.22;4991319;28;20210;-75
2022/07/05 01:15:12;;;;;;;2.28;2.08;;;;;;;20.07;55.94;94722.16;4991284;28;20680;-75
2022/07/05 01:17:39;;;;;;;2.05;1.80;;;;;;;20.03;56.50;94726.84;4991864;28;20640;-75
2022/07/05 01:20:08;;;;;;;2.15;1.95;;;;;;;19.88;58.34;94725.97;4991520;28;20775;-75
2022/07/05 01:22:53;;;;;;;1.70;1.60;;;;;;;19.74;59.98;94732.16;4991426;28;20237;-75
2022/07/05 01:25:21;;;;;;;2.67;1.98;;;;;;;19.89;59.63;94733.03;4990029;28;20212;-75
2022/07/05 01:27:48;;;;;;;4.00;3.70;;;;;;;19.74;60.26;94732.16;4991365;28;20252;-75
2022/07/05 01:30:16;;;;;;;3.15;2.42;;;;;;;19.64;61.15;94743.88;4991770;28;20293;-75
2022/07/05 01:32:43;;;;;;;1.70;1.60;;;;;;;19.59;62.17;94749.72;4991201;28;20237;-75
2022/07/05 01:35:11;;;;;;;4.80;2.40;;;;;;;19.63;61.71;94752.50;4991580;28;20206;-75
2022/07/05 01:37:38;;;;;;;2.80;2.50;;;;;;;19.63;62.03;94752.50;4991708;28;20202;-74
2022/07/05 01:40:08;;;;;;;5.57;5.07;;;;;;;19.61;62.54;94750.13;4990925;28;20237;-74
2022/07/05 01:42:35;;;;;;;2.90;2.60;;;;;;;19.58;62.42;94742.66;4991356;28;20237;-74
2022/07/05 01:45:01;;;;;;;3.65;2.55;;;;;;;19.48;62.84;94740.59;4979009;28;20198;-74
2022/07/05 01:47:28;;;;;;;4.38;3.45;;;;;;;19.45;62.43;94735.84;4991127;28;20260;-73
2022/07/05 01:49:59;;;;;;;4.03;2.20;;;;;;;19.46;62.52;94731.94;4978470;28;20210;-75
2022/07/05 01:52:28;;;;;;;2.35;1.98;;;;;;;19.53;62.04;94732.03;4991670;28;20245;-74
2022/07/05 01:54:55;;;;;;;2.65;2.10;;;;;;;19.42;61.91;94725.63;4991488;28;20296;-74
2022/07/05 01:57:23;;;;;;;6.35;2.65;;;;;;;19.49;61.57;94733.97;4991295;28;20205;-74
2022/07/05 01:59:51;;;;;;;2.30;1.85;;;;;;;19.55;61.50;94728.88;4991206;28;20569;-74
2022/07/05 02:02:17;;;;;;;3.28;2.15;;;;;;;19.64;62.13;94727.41;4991045;28;20197;-74
2022/07/05 02:04:44;;;;;;;2.78;2.17;;;;;;;19.67;60.70;94737.63;4991323;28;20576;-75
2022/07/05 02:07:11;;;;;;;3.03;2.20;;;;;;;19.62;61.05;94724.25;4991376;28;20615;-74
2022/07/05 02:09:38;;;;;;;3.08;2.20;;;;;;;19.52;61.25;94735.94;4991522;28;20254;-74
2022/07/05 02:12:06;;;;;;;2.25;2.03;;;;;;;19.52;61.38;94731.25;4991305;28;20214;-74
2022/07/05 02:14:35;;;;;;;2.75;2.33;;;;;;;19.62;61.61;94723.44;4990753;28;20206;-74
2022/07/05 02:17:02;;;;;;;3.72;2.50;;;;;;;19.69;61.27;94718.78;4991085;28;20205;-74
2022/07/05 02:19:29;;;;;;;3.00;2.45;;;;;;;19.68;61.51;94727.44;4993908;28;20244;-74
2022/07/05 02:21:56;;;;;;;2.83;2.40;;;;;;;19.43;62.51;94732.69;4994318;28;20628;-75
2022/07/05 02:24:24;;;;;;;2.97;2.50;;;;;;;19.42;62.62;94736.59;4994849;28;20232;-74
2022/07/05 02:26:51;;;;;;;4.63;2.65;;;;;;;19.50;62.26;94732.78;4994820;28;20209;-74
2022/07/05 02:29:18;;;;;;;2.50;1.92;;;;;;;19.63;61.92;94736.81;4994331;28;20711;-74
2022/07/05 02:31:46;;;;;;;4.07;3.72;;;;;;;19.59;62.96;94746.19;4994269;28;20280;-75
2022/07/05 02:34:13;;;;;;;4.53;2.22;;;;;;;19.55;63.18;94746.16;4994692;28;20264;-75
2022/07/05 02:36:40;;;;;;;3.15;2.85;;;;;;;19.52;62.49;94753.22;4994398;28;20665;-75
2022/07/05 02:39:07;;;;;;;4.65;2.50;;;;;;;19.59;62.70;94746.97;4994451;28;20237;-75
2022/07/05 02:41:34;;;;;;;4.28;2.30;;;;;;;19.52;63.54;94750.47;4994741;28;20213;-75
2022/07/05 02:44:00;;;;;;;2.60;2.40;;;;;;;19.33;64.01;94755.38;4994239;28;20245;-75
2022/07/05 02:46:27;;;;;;;3.53;2.50;;;;;;;19.18;64.16;94760.75;4994518;28;20209;-75
2022/07/05 02:48:55;;;;;;;2.95;2.50;;;;;;;19.20;63.73;94768.63;4994756;28;20618;-75
2022/07/05 02:51:22;;;;;;;2.83;2.35;;;;;;;19.28;63.03;94759.25;4993923;28;20205;-75
2022/07/05 02:53:49;;;;;;;5.63;3.13;;;;;;;19.33;63.45;94767.16;4994714;28;20620;-75
2022/07/05 02:56:16;;;;;;;5.13;2.53;;;;;;;19.36;65.61;94757.38;4994224;28;20264;-75
2022/07/05 02:58:42;;;;;;;8.32;2.35;;;;;;;19.13;65.02;94758.34;4994094;28;20649;-74
2022/07/05 03:01:09;;;;;;;2.22;1.88;;;;;;;19.15;64.78;94763.47;4994021;28;20224;-74
2022/07/05 03:03:36;;;;;;;4.85;2.25;;;;;;;19.23;65.28;94767.09;4994366;28;20206;-74
2022/07/05 03:06:04;;;;;;;3.33;2.60;;;;;;;19.24;64.27;94763.16;4993995;28;20287;-74
2022/07/05 03:08:31;;;;;;;2.80;2.05;;;;;;;19.44;63.32;94756.25;4993757;28;20252;-74
2022/07/05 03:10:58;;;;;;;3.47;2.40;;;;;;;19.85;62.21;94765.22;4993688;28;20209;-73
2022/07/05 03:13:25;;;;;;;3.72;2.38;;;;;;;20.34;60.88;94761.19;4994085;28;20198;-74
2022/07/05 03:15:51;;;;;;;3.00;2.50;;;;;;;20.86;59.23;94757.06;4993468;28;20740;-74
2022/07/05 03:18:18;;;;;;;2.58;2.20;;;;;;;21.45;57.23;94752.84;4993640;28;20209;-74
2022/07/05 03:20:45;;;;;;;3.33;2.47;;;;;;;22.05;56.98;94743.72;4993418;28;20241;-74
2022/07/05 03:23:13;;;;;;;2.58;2.38;;;;;;;22.44;56.48;94742.78;4994061;28;20268;-75
2022/07/05 03:25:40;;;;;;;3.67;3.13;;;;;;;22.88;54.64;94742.22;4993896;28;20269;-75
2022/07/05 03:28:07;;;;;;;3.05;2.42;;;;;;;23.33;53.10;94743.91;4993566;28;20222;-75
2022/07/05 03:30:34;;;;;;;3.05;2.78;;;;;;;23.81;52.46;94742.34;4979867;28;20605;-74
2022/07/05 03:33:00;;;;;;;3.30;2.38;;;;;;;24.18;51.64;94738.81;4993150;28;20644;-75
2022/07/05 03:35:27;;;;;;;10.10;9.52;;;;;;;24.67;50.27;94732.69;4993052;28;20206;-75
2022/07/05 03:37:54;;;;;;;3.33;2.85;;;;;;;25.20;48.77;94724.88;4993248;28;20206;-75
2022/07/05 03:40:23;;;;;;;10.60;9.90;;;;;;;25.48;47.47;94722.44;4992969;28;20229;-75
2022/07/05 03:42:50;;;;;;;3.90;3.05;;;;;;;25.73;47.07;94722.06;4992429;28;20785;-75
2022/07/05 03:45:16;;;;;;;9.63;9.05;;;;;;;26.19;45.84;94731.56;4993126;28;20248;-75
2022/07/05 03:47:43;;;;;;;10.02;9.32;;;;;;;26.41;45.55;94716.06;4993027;28;20209;-75
2022/07/05 03:50:10;;;;;;;11.40;10.60;;;;;;;26.79;44.39;94719.22;4992959;28;20217;-76
2022/07/05 03:52:37;;;;;;;11.45;10.68;;;;;;;27.55;43.00;94708.78;4992635;28;20268;-76
2022/07/05 03:55:04;;;;;;;11.60;10.90;;;;;;;28.01;42.18;94712.44;4993509;28;20205;-76
2022/07/05 03:57:32;;;;;;;11.90;11.10;;;;;;;28.02;41.75;94707.66;4992910;28;20268;-76
2022/07/05 03:59:59;;;;;;;12.65;11.85;;;;;;;28.50;40.76;94715.91;4992921;28;20237;-76
2022/07/05 04:02:26;;;;;;;9.98;9.38;;;;;;;29.53;39.62;94707.25;4992908;28;20201;-76
2022/07/05 04:04:53;;;;;;;11.48;10.57;;;;;;;29.43;38.67;94702.78;4993069;28;20260;-76
2022/07/05 04:07:20;;;;;;;11.52;10.82;;;;;;;29.28;38.64;94710.78;4992861;28;20206;-76
2022/07/05 04:09:47;;;;;;;13.52;12.52;;;;;;;29.00;39.07;94715.25;4993115;28;20932;-76
2022/07/05 04:12:13;;;;;;;11.95;11.15;;;;;;;29.73;38.02;94709.78;4992815;28;20210;-76
2022/07/05 04:14:41;;;;;;;14.23;13.35;;;;;;;30.01;38.04;94713.66;4993124;28;20209;-75
2022/07/05 04:17:08;;;;;;;13.27;12.45;;;;;;;30.14;37.32;94711.63;4992646;28;20210;-77
2022/07/05 04:19:35;;;;;;;12.48;11.68;;;;;;;30.44;36.82;94706.59;4992464;28;20678;-76
2022/07/05 04:22:02;;;;;;;12.15;11.45;;;;;;;31.11;34.96;94706.13;4992661;28;20607;-76
2022/07/05 04:24:29;;;;;;;11.90;11.20;;;;;;;31.32;34.74;94708.09;4991841;28;20213;-75
2022/07/05 04:26:55;;;;;;;11.77;11.05;;;;;;;30.85;34.64;94709.09;4992323;28;20201;-76
2022/07/05 04:29:22;;;;;;;13.13;12.20;;;;;;;31.03;34.65;94713.97;4994321;28;20271;-75
2022/07/05 04:31:50;;;;;;;12.65;11.85;;;;;;;31.72;33.94;94706.09;5005430;28;20209;-76
2022/07/05 04:34:17;;;;;;;13.77;12.88;;;;;;;30.64;34.41;94715.44;5004015;28;20240;-78
2022/07/05 04:36:44;;;;;;;11.48;10.48;;;;;;;29.87;35.92;94714.91;4993918;28;20724;-76
2022/07/05 04:39:11;;;;;;;13.05;11.88;;;;;;;28.09;38.30;94719.38;5000703;28;20255;-77
2022/07/05 04:41:38;;;;;;;12.93;12.00;;;;;;;28.17;38.53;94719.97;4994700;28;20240;-77
2022/07/05 04:44:05;;;;;;;13.07;12.27;;;;;;;28.81;37.83;94721.03;5002461;28;20644;-75
2022/07/05 04:46:32;;;;;;;15.30;14.20;;;;;;;29.46;35.70;94715.84;4995979;28;20200;-75
2022/07/05 04:49:00;;;;;;;14.68;13.57;;;;;;;30.77;34.52;94712.59;4999782;28;20209;-77
2022/07/05 04:51:27;;;;;;;14.30;13.48;;;;;;;30.79;34.44;94708.09;4992913;28;20198;-75
2022/07/05 04:53:55;;;;;;;10.60;9.88;;;;;;;31.41;33.48;94705.34;5000829;28;20201;-77
2022/07/05 04:56:22;;;;;;;13.52;12.52;;;;;;;32.29;31.76;94712.13;5003214;28;20291;-76
2022/07/05 04:58:49;;;;;;;13.02;12.15;;;;;;;32.82;31.02;94715.41;4998221;28;20560;-75
2022/07/05 05:01:16;;;;;;;11.82;11.02;;;;;;;33.07;30.63;94719.13;4978478;28;20715;-77
2022/07/05 05:03:42;;;;;;;14.50;13.60;;;;;;;33.19;30.75;94718.91;4991719;28;20224;-75
2022/07/05 05:06:11;;;;;;;14.75;13.77;;;;;;;33.41;30.67;94715.91;4978659;28;20279;-76
2022/07/05 05:08:37;;;;;;;11.90;11.00;;;;;;;32.44;31.29;94726.31;4991886;28;20209;-76
2022/07/05 05:11:05;;;;;;;15.38;14.20;;;;;;;34.08;29.14;94706.19;4991977;28;20340;-76
2022/07/05 05:13:32;;;;;;;14.48;13.48;;;;;;;33.76;29.68;94718.28;4990579;28;20521;-76
2022/07/05 05:15:59;;;;;;;11.05;10.35;;;;;;;34.29;29.50;94718.44;4992045;28;20321;-77
2022/07/05 05:18:27;;;;;;;12.93;11.82;;;;;;;34.91;29.44;94720.44;4991641;28;20609;-77
2022/07/05 05:20:53;;;;;;;14.32;13.38;;;;;;;35.46;28.13;94717.06;4991284;28;20597;-77
2022/07/05 05:23:22;;;;;;;12.73;11.93;;;;;;;36.22;27.00;94724.38;4991470;28;20668;-77
2022/07/05 05:25:49;;;;;;;12.50;11.70;;;;;;;36.20;27.70;94714.84;4990966;28;20252;-77
2022/07/05 05:28:16;;;;;;;12.93;12.15;;;;;;;36.12;26.51;94717.31;4991473;28;20233;-77
2022/07/05 05:30:43;;;;;;;13.55;12.63;;;;;;;36.35;26.50;94726.09;4991742;28;20293;-77
2022/07/05 05:33:09;;;;;;;10.20;9.60;;;;;;;36.02;26.42;94723.56;4990682;28;20249;-77
2022/07/05 05:35:36;;;;;;;13.25;12.35;;;;;;;35.82;26.98;94713.03;4991615;28;20202;-77
2022/07/05 05:38:03;;;;;;;14.10;13.15;;;;;;;36.39;26.15;94715.34;4991529;28;20206;-77
2022/07/05 05:40:32;;;;;;;13.68;12.77;;;;;;;36.50;25.98;94707.81;4991303;28;20727;-77
2022/07/05 05:42:59;;;;;;;12.98;12.07;;;;;;;36.22;26.13;94712.31;4991451;28;20257;-78
2022/07/05 05:45:27;;;;;;;11.38;10.57;;;;;;;36.35;25.91;94712.78;4991515;28;20221;-75
2022/07/05 05:47:55;;;;;;;13.18;12.38;;;;;;;36.94;26.05;94718.06;4991451;28;20208;-76
2022/07/05 05:50:24;;;;;;;13.10;11.90;;;;;;;37.05;25.50;94721.00;4991642;28;20217;-78
2022/07/05 05:52:51;;;;;;;12.18;11.27;;;;;;;35.38;27.17;94719.50;4993278;28;20260;-76
2022/07/05 05:55:18;;;;;;;13.02;12.23;;;;;;;33.68;29.18;94728.28;4995214;28;20202;-77
2022/07/05 05:57:46;;;;;;;12.02;11.23;;;;;;;35.19;27.41;94723.75;4994767;28;20612;-77
2022/07/05 06:00:14;;;;;;;13.23;12.32;;;;;;;35.95;27.42;94714.25;4995418;28;20727;-77
2022/07/05 06:02:42;;;;;;;14.10;13.10;;;;;;;36.23;27.52;94725.94;4995450;28;20210;-77
2022/07/05 06:05:12;;;;;;;13.35;12.38;;;;;;;35.48;27.39;94734.25;4994838;28;20279;-77
2022/07/05 06:07:46;;;;;;;12.45;11.68;;;;;;;34.95;28.38;94732.31;4995081;28;20208;-78
2022/07/05 06:10:16;;;;;;;13.50;12.50;;;;;;;33.13;30.81;94739.69;4995080;28;20216;-77
2022/07/05 06:12:46;;;;;;;13.40;12.40;;;;;;;32.07;32.65;94739.50;4995208;28;20202;-76
2022/07/05 06:15:13;;;;;;;11.55;10.75;;;;;;;32.36;32.30;94739.88;4995578;28;20194;-77
2022/07/05 06:17:43;;;;;;;14.38;13.48;;;;;;;32.34;31.89;94742.38;4995081;28;20209;-77
2022/07/05 06:20:15;;;;;;;13.52;12.52;;;;;;;31.39;33.76;94749.84;4994985;28;20280;-79
2022/07/05 06:22:44;;;;;;;15.05;14.05;;;;;;;31.00;34.75;94743.69;4993971;28;20275;-78
2022/07/05 06:25:11;;;;;;;12.85;11.95;;;;;;;33.10;31.47;94735.00;4995300;28;20263;-77
2022/07/05 06:27:41;;;;;;;14.07;12.88;;;;;;;32.52;31.57;94741.59;4994233;28;20684;-76
2022/07/05 06:30:11;;;;;;;12.00;11.15;;;;;;;31.89;32.98;94742.25;4994691;28;20301;-77
2022/07/05 06:32:38;;;;;;;10.68;9.95;;;;;;;32.30;31.98;94752.16;4994430;28;20656;-76
2022/07/05 06:35:13;;;;;;;11.90;10.98;;;;;;;32.60;31.86;94747.66;4994105;28;20206;-77
2022/07/05 06:37:44;;;;;;;11.15;10.40;;;;;;;33.94;30.12;94739.88;4994374;28;20190;-77
2022/07/05 06:40:12;;;;;;;12.93;12.02;;;;;;;35.39;28.37;94728.75;4981891;28;20248;-77
2022/07/05 06:42:42;;;;;;;10.90;10.10;;;;;;;35.39;27.90;94725.94;4994312;28;20214;-77
2022/07/05 06:45:11;;;;;;;10.98;10.00;;;;;;;35.01;27.93;94726.75;4994501;28;20198;-77
2022/07/05 06:47:38;;;;;;;14.57;13.68;;;;;;;35.33;28.22;94725.81;4994893;28;20636;-77
2022/07/05 06:50:08;;;;;;;13.18;12.35;;;;;;;37.10;26.21;94728.00;4994919;28;20242;-77
2022/07/05 06:52:39;;;;;;;13.48;12.32;;;;;;;37.28;26.13;94714.34;4994274;28;20669;-77
2022/07/05 06:55:06;;;;;;;13.55;12.55;;;;;;;37.02;25.52;94722.03;4994002;28;20208;-77
2022/07/05 06:57:33;;;;;;;12.13;11.23;;;;;;;37.53;25.87;94720.44;4994720;28;20213;-77
2022/07/05 07:00:01;;;;;;;12.70;11.90;;;;;;;38.02;26.05;94710.78;4994108;28;20210;-77
2022/07/05 07:02:29;;;;;;;13.40;12.30;;;;;;;37.55;25.93;94715.06;4994287;28;20205;-78
2022/07/05 07:04:56;;;;;;;12.00;11.27;;;;;;;37.00;25.79;94707.63;4993026;28;20209;-77
2022/07/05 07:10:09;;;;;;;11.57;10.70;;;;;;;36.57;28.40;94700.97;4994192;28;20200;-78
2022/07/05 07:12:36;;;;;;;12.57;11.57;;;;;;;36.87;27.00;94713.66;4993983;28;20208;-78
2022/07/05 07:15:03;;;;;;;14.50;13.30;;;;;;;38.10;25.29;94705.47;4993760;28;20214;-77
2022/07/05 07:17:31;;;;;;;11.25;10.32;;;;;;;38.04;25.67;94714.66;4980835;28;20202;-76
2022/07/05 07:19:58;;;;;;;11.55;10.75;;;;;;;37.50;26.59;94718.63;4994020;28;20205;-79
2022/07/05 07:22:25;;;;;;;10.57;9.88;;;;;;;37.02;26.19;94716.38;4993693;28;20564;-78
2022/07/05 07:24:54;;;;;;;11.82;11.05;;;;;;;37.11;27.26;94721.84;4993289;28;20206;-77
2022/07/05 07:27:21;;;;;;;11.00;10.20;;;;;;;36.87;27.53;94724.94;4993395;28;20380;-78
2022/07/05 07:29:48;;;;;;;14.40;13.40;;;;;;;37.76;26.87;94727.84;4992888;28;20280;-78
2022/07/05 07:32:14;;;;;;;12.35;11.52;;;;;;;37.97;25.61;94720.81;4992715;28;20750;-78
2022/07/05 07:34:43;;;;;;;12.13;11.07;;;;;;;36.86;27.30;94722.63;4993303;28;20201;-77
2022/07/05 07:37:13;;;;;;;12.55;11.65;;;;;;;37.11;26.46;94716.19;4993056;28;20735;-78
2022/07/05 07:39:40;;;;;;;10.63;9.80;;;;;;;36.01;28.18;94719.19;4993548;28;20217;-78
2022/07/05 07:42:07;;;;;;;9.52;8.93;;;;;;;37.09;27.29;94704.63;4993140;28;20284;-79
2022/07/05 07:44:34;;;;;;;11.30;10.57;;;;;;;36.83;27.39;94712.31;4992940;28;20201;-76
2022/07/05 07:47:01;;;;;;;11.48;10.55;;;;;;;37.31;26.99;94704.84;4993161;28;20612;-75
2022/07/05 07:49:28;;;;;;;10.63;9.93;;;;;;;37.05;27.96;94708.94;4993092;28;20341;-76
2022/07/05 07:51:56;;;;;;;10.15;9.45;;;;;;;36.57;27.89;94706.59;4993241;28;20198;-77
2022/07/05 07:54:23;;;;;;;12.23;11.30;;;;;;;34.85;29.71;94716.75;4993271;28;20217;-75
2022/07/05 07:56:50;;;;;;;14.70;13.50;;;;;;;35.10;29.46;94716.19;4993216;28;20202;-77
2022/07/05 07:59:17;;;;;;;12.13;11.13;;;;;;;34.58;29.96;94710.06;4992826;28;20668;-78
2022/07/05 08:01:44;;;;;;;9.75;9.05;;;;;;;35.15;29.34;94712.69;4992613;28;20225;-78
2022/07/05 08:04:11;;;;;;;11.85;10.73;;;;;;;35.60;29.87;94708.59;4993217;28;20198;-78
2022/07/05 08:06:38;;;;;;;11.52;10.63;;;;;;;35.81;29.37;94706.59;4992723;28;20565;-79
2022/07/05 08:09:06;;;;;;;11.32;10.38;;;;;;;35.70;29.70;94712.06;4993006;28;20202;-80
2022/07/05 08:11:33;;;;;;;10.40;9.48;;;;;;;35.23;29.37;94716.66;4993208;28;20202;-78
2022/07/05 08:13:59;;;;;;;10.68;9.73;;;;;;;35.11;29.28;94720.56;4993003;28;20205;-78
2022/07/05 08:16:26;;;;;;;11.15;10.15;;;;;;;33.76;30.73;94716.22;4992497;28;20564;-78
2022/07/05 08:21:38;;;;;;;11.57;10.77;;;;;;;34.21;31.15;94703.16;4992702;28;20268;-77
2022/07/05 08:24:08;;;;;;;12.75;11.75;;;;;;;34.61;31.63;94707.53;4979691;28;20284;-77
2022/07/05 08:26:36;;;;;;;10.77;9.98;;;;;;;34.50;30.66;94702.47;4992045;28;20652;-78
2022/07/05 08:29:04;;;;;;;11.55;10.45;;;;;;;33.34;31.09;94710.63;4992498;28;20280;-78
2022/07/05 08:31:32;;;;;;;11.43;10.52;;;;;;;32.87;32.59;94705.56;4992388;28;20214;-78
2022/07/05 08:34:00;;;;;;;10.55;9.85;;;;;;;32.97;32.56;94709.91;4992130;28;20291;-78
2022/07/05 08:36:27;;;;;;;11.57;10.68;;;;;;;34.16;31.68;94695.38;4992735;28;20206;-78
2022/07/05 08:38:54;;;;;;;11.18;10.32;;;;;;;33.88;31.73;94686.34;4991903;28;20676;-78
2022/07/05 08:41:23;;;;;;;10.23;9.43;;;;;;;32.33;32.64;94695.16;4992130;28;20315;-79
2022/07/05 08:43:52;;;;;;;10.48;9.75;;;;;;;32.31;33.87;94692.03;4991975;28;20210;-77
2022/07/05 08:46:20;;;;;;;13.10;12.10;;;;;;;33.25;32.21;94690.22;4991696;28;20296;-78
2022/07/05 08:48:49;;;;;;;11.73;10.82;;;;;;;32.43;33.45;94697.47;4991798;28;20206;-76
2022/07/05 08:51:17;;;;;;;10.45;9.75;;;;;;;32.02;33.45;94695.25;4991808;28;20197;-77
2022/07/05 08:53:45;;;;;;;13.60;12.60;;;;;;;32.09;33.55;94692.16;4991665;28;20665;-78
2022/07/05 08:56:14;;;;;;;12.52;11.73;;;;;;;32.14;33.41;94694.31;4991786;28;20232;-77
2022/07/05 08:58:43;;;;;;;13.88;12.73;;;;;;;32.71;33.14;94680.63;4991753;28;20584;-78
2022/07/05 09:01:11;;;;;;;13.48;12.45;;;;;;;32.13;33.45;94684.34;4992125;28;20229;-79
2022/07/05 09:03:41;;;;;;;13.02;12.05;;;;;;;31.89;35.37;94684.19;4991348;28;20198;-77
2022/07/05 09:06:10;;;;;;;13.88;12.88;;;;;;;32.55;32.77;94680.94;4992047;28;20201;-78
2022/07/05 09:08:39;;;;;;;11.90;11.10;;;;;;;33.01;33.10;94671.22;4991725;28;20218;-78
2022/07/05 09:11:08;;;;;;;12.95;11.85;;;;;;;33.84;31.73;94658.41;4979239;28;20205;-78
2022/07/05 09:13:37;;;;;;;13.60;12.73;;;;;;;32.96;34.28;94669.06;4992169;28;20256;-76
2022/07/05 09:16:06;;;;;;;15.02;13.93;;;;;;;32.89;33.60;94669.41;4992097;28;20217;-78
2022/07/05 09:18:43;;;;;;;15.93;15.00;;;;;;;32.95;33.00;94653.44;4991787;28;20669;-77
2022/07/05 09:21:14;;;;;;;14.63;13.55;;;;;;;32.44;33.08;94656.97;4991674;28;20217;-77
2022/07/05 09:23:42;;;;;;;13.20;12.23;;;;;;;33.23;31.92;94642.91;4991782;28;20260;-78
2022/07/05 09:26:09;;;;;;;14.18;13.07;;;;;;;32.86;32.18;94659.09;4991584;28;20704;-77
2022/07/05 09:28:36;;;;;;;14.05;13.10;;;;;;;32.66;33.76;94651.19;4991364;28;20209;-77
2022/07/05 09:31:05;;;;;;;13.20;11.88;;;;;;;33.25;32.40;94639.66;4991480;28;20668;-76
2022/07/05 09:33:32;;;;;;;13.90;12.60;;;;;;;32.76;32.64;94640.75;4991024;28;20678;-79
2022/07/05 09:35:59;;;;;;;15.55;14.10;;;;;;;32.11;32.73;94644.81;4991544;28;20289;-78
2022/07/05 09:38:27;;;;;;;13.90;12.80;;;;;;;32.53;33.26;94647.75;4991210;28;20716;-77
2022/07/05 09:40:55;;;;;;;14.73;13.27;;;;;;;33.01;32.64;94643.16;4991220;28;20252;-79
2022/07/05 09:43:23;;;;;;;13.63;12.57;;;;;;;33.78;31.32;94626.59;4978293;28;20573;-78
2022/07/05 09:45:55;;;;;;;13.63;12.52;;;;;;;32.88;32.13;94639.00;4991390;28;20209;-76
2022/07/05 09:48:23;;;;;;;12.98;11.98;;;;;;;32.35;32.92;94636.56;4991485;28;20720;-79
2022/07/05 09:50:51;;;;;;;12.27;11.23;;;;;;;32.04;34.08;94628.28;4991440;28;20206;-78
2022/07/05 09:53:18;;;;;;;13.25;12.05;;;;;;;31.91;34.48;94636.06;4991266;28;20206;-77
2022/07/05 09:56:01;;;;;;;13.27;12.38;;;;;;;31.94;35.67;94629.53;4990769;28;20330;-79
2022/07/05 09:58:29;;;;;;;13.57;12.48;;;;;;;32.48;34.90;94623.94;4991081;28;20281;-78
2022/07/05 10:00:56;;;;;;;15.30;14.18;;;;;;;33.17;33.41;94617.50;4990618;28;20309;-77
2022/07/05 10:03:24;;;;;;;12.57;11.57;;;;;;;32.65;33.67;94617.97;4991529;28;20225;-77
2022/07/05 10:05:50;;;;;;;11.77;10.93;;;;;;;32.45;35.18;94619.25;4990915;28;20256;-76
2022/07/05 10:08:20;;;;;;;13.60;12.38;;;;;;;32.44;34.29;94612.09;4991512;28;20284;-78
2022/07/05 10:10:48;;;;;;;13.10;12.00;;;;;;;32.31;35.03;94608.69;4990404;28;20569;-77
2022/07/05 10:13:15;;;;;;;12.63;11.70;;;;;;;32.09;34.93;94608.06;4990518;28;20206;-79
2022/07/05 10:15:44;;;;;;;11.85;10.98;;;;;;;32.34;36.52;94615.38;4991127;28;20202;-78
2022/07/05 10:18:14;;;;;;;11.65;10.85;;;;;;;32.72;34.60;94609.25;4991382;28;20201;-77
2022/07/05 10:20:44;;;;;;;10.75;9.98;;;;;;;32.86;34.74;94602.97;4991397;28;20260;-77
2022/07/05 10:23:12;;;;;;;12.98;11.85;;;;;;;33.13;34.41;94591.63;4991364;28;20237;-77
2022/07/05 10:25:40;;;;;;;12.70;11.75;;;;;;;33.24;33.77;94593.13;4978753;28;20206;-77
2022/07/05 10:28:09;;;;;;;11.77;10.95;;;;;;;33.51;33.94;94581.78;4990986;28;20210;-78
2022/07/05 10:30:37;;;;;;;11.57;10.77;;;;;;;33.37;34.29;94574.06;4990956;28;20264;-78
2022/07/05 10:33:05;;;;;;;11.98;11.18;;;;;;;32.97;34.10;94580.78;4990432;28;20233;-77
2022/07/05 10:35:32;;;;;;;12.30;11.32;;;;;;;33.05;34.43;94587.63;4990950;28;20260;-77
2022/07/05 10:38:02;;;;;;;12.00;11.00;;;;;;;33.32;33.78;94577.53;4990650;28;20206;-78
2022/07/05 10:40:31;;;;;;;10.02;9.18;;;;;;;33.60;33.90;94576.09;4993876;28;20724;-77
2022/07/05 10:43:02;;;;;;;10.35;9.55;;;;;;;34.23;33.92;94571.25;4994334;28;20225;-78
2022/07/05 10:45:32;;;;;;;12.70;11.70;;;;;;;33.40;33.41;94573.09;4994684;28;20217;-77
2022/07/05 10:48:20;;;;;;;10.38;9.48;;;;;;;33.04;33.79;94569.22;4994609;28;20202;-77
2022/07/05 10:50:51;;;;;;;9.70;8.98;;;;;;;33.15;34.19;94563.84;4994279;28;20615;-74
2022/07/05 10:53:21;;;;;;;10.65;9.73;;;;;;;32.94;34.00;94564.13;4994716;28;20202;-77
2022/07/05 10:55:58;;;;;;;11.52;10.63;;;;;;;32.88;35.80;94572.41;4994246;28;20688;-77
2022/07/05 10:58:32;;;;;;;11.98;11.10;;;;;;;33.31;33.41;94564.75;4994303;28;20276;-76
2022/07/05 11:01:39;;;;;;;10.25;9.55;;;;;;;33.09;33.57;94557.31;4994582;28;20204;-79
2022/07/05 11:04:33;;;;;;;10.55;9.88;;;;;;;33.47;32.72;94555.91;4993418;28;20632;-77
2022/07/05 11:07:01;;;;;;;10.25;9.50;;;;;;;33.79;31.22;94559.91;4994181;28;20205;-76
2022/07/05 11:09:32;;;;;;;11.40;10.23;;;;;;;34.29;32.08;94551.69;4994344;28;20209;-76
2022/07/05 11:12:09;;;;;;;11.35;10.55;;;;;;;34.10;31.87;94548.25;4993666;28;20592;-76
2022/07/05 11:14:46;;;;;;;10.07;9.43;;;;;;;33.65;31.23;94546.53;4993831;28;20197;-75
2022/07/05 11:17:30;;;;;;;11.48;10.52;;;;;;;34.37;31.05;94542.38;4993704;28;20196;-76
2022/07/05 11:20:23;;;;;;;10.30;9.50;;;;;;;33.81;33.36;94546.91;4993614;28;20624;-76
2022/07/05 11:23:04;;;;;;;11.13;10.18;;;;;;;32.83;34.33;94553.38;4971841;28;20238;-76
2022/07/05 11:25:35;;;;;;;11.88;11.10;;;;;;;32.85;34.66;94545.28;4993270;28;20205;-76
2022/07/05 11:28:22;;;;;;;11.98;11.15;;;;;;;33.34;33.38;94535.69;4994086;28;20264;-77
2022/07/05 11:30:54;;;;;;;10.25;9.55;;;;;;;32.90;33.16;94547.44;4983957;28;20197;-76
2022/07/05 11:33:42;;;;;;;10.77;9.82;;;;;;;33.25;34.17;94544.16;4993131;28;20724;-76
2022/07/05 11:36:22;;;;;;;11.20;10.38;;;;;;;32.95;32.87;94543.97;4994003;28;20202;-76